シャージャラル国際空港(ダッカ)の過去48時間の天気

シャージャラル国際空港(ダッカ) (Kurmitola, Dia)

現在時刻: 5/26 08:02 +06 (5/26 02:02 UTC) 以下の時間は現地時間です。

過去48時間のMETAR気象情報
時間 風向 風速(m/s) 視程 気温(℃) 湿度(%) 気圧(hPa) 天気現象
26 07:30 南南東 2 3500m 27 79 1005 煙霧
26 07:00 南南東 2 3500m 27 84 1005 煙霧
26 06:30 南南東 2 3500m 26 84 1005 煙霧
26 06:00 静穏 0 3500m 26 84 1004 煙霧
26 05:30 静穏 0 3500m 25 83 1004 煙霧
26 05:00 静穏 0 3500m 25 83 1003 煙霧
26 04:30 静穏 0 3500m 25 83 1003 煙霧
26 04:00 南南東 2 3500m 25 83 1003 煙霧
26 03:30 2 3500m 25 83 1003 煙霧
26 03:00 2 3500m 25 78 1003 煙霧
26 02:30 静穏 0 3500m 25 78 1003 煙霧
26 02:00 2 3500m 25 83 1003 煙霧
26 01:30 南東 3 3500m 25 89 1004 霧雨
26 01:00 東南東 2 3500m 25 94 1004
26 00:30 5 3500m 25 94 1005
26 00:00 南南西 6 3500m 26 84 1006
25 23:30 南西 5 3500m 27 79 1006 霧雨
25 23:00 南南東 2 3500m 27 70 1005 煙霧
25 22:30 2 3500m 27 70 1005 煙霧
25 22:00 南南東 2 3500m 27 70 1006 煙霧
25 21:30 2 3500m 27 70 1005 煙霧
25 21:00 東南東 2 3500m 28 70 1005 煙霧
25 20:30 3 3500m 28 70 1005 煙霧
25 20:00 東南東 2 3500m 28 70 1004 煙霧
25 19:30 東南東 2 3500m 28 70 1003 煙霧
25 19:00 2 3500m 28 70 1003 煙霧
25 18:30 2 3500m 28 74 1003 煙霧
25 18:00 2 3000m 29 79 1002 煙霧
25 17:30 東南東 2 3000m 29 79 1002 煙霧
25 17:00 2 3000m 29 79 1002 煙霧
25 16:30 2 3000m 29 79 1002 煙霧
25 16:00 静穏 0 3000m 29 79 1002 煙霧
25 15:30 静穏 0 3000m 29 79 1002 煙霧
25 15:00 静穏 0 2800m 28 84 1003
25 14:30 静穏 0 2800m 28 84 1004 雷雨
25 14:00 静穏 0 2800m 28 84 1005 雷雨
25 13:30 西北西 3 2800m 29 84 1005 雷雨
25 13:00 南西 6 2500m 29 84 1005 雷雨
25 12:30 西北西 9 3500m 31 66 1005 煙霧
25 12:00 北西 9 4000m 33 63 1005 煙霧
25 11:30 西 4 4000m 33 63 1005 煙霧
25 11:00 南西 4 4000m 32 67 1005 煙霧
25 10:30 南南西 2 4000m 31 66 1005 煙霧
25 10:00 3 4000m 31 66 1006 煙霧
25 09:30 3 4000m 30 66 1006 煙霧
25 09:00 3 3500m 30 66 1006 煙霧
25 08:30 4 3500m 30 66 1006 煙霧
25 08:00 3 3500m 29 70 1006 煙霧
25 07:30 3 3500m 29 70 1006 煙霧
25 07:00 静穏 0 3500m 28 74 1005 煙霧
25 06:30 静穏 0 3500m 28 74 1005 煙霧
25 06:00 静穏 0 3500m 28 74 1005 煙霧
25 05:30 西南西 3 3500m 28 74 1004 煙霧
25 05:00 西南西 3 3500m 28 74 1004 煙霧
25 04:30 西南西 4 3500m 28 79 1004 煙霧
25 04:00 西 5 3500m 28 79 1004 煙霧
25 03:30 南南西 3 3500m 29 74 1004 煙霧
25 03:00 3 3500m 29 74 1004 煙霧
25 02:30 2 3500m 29 74 1004 煙霧
VGHS 260130Z 15003KT 3500 HZ SCT012 BKN100 27/23 Q1005 NOSIG
VGHS 260100Z 15003KT 3500 HZ SCT012 BKN100 27/24 Q1005 NOSIG
VGHS 260030Z 15004KT 3500 HZ SCT012 BKN100 26/23 Q1005 NOSIG
VGHS 260000Z 00000KT 3500 HZ SCT015 BKN100 26/23 Q1004 NOSIG
VGHS 252330Z 00000KT 3500 HZ SCT015 BKN100 25/22 Q1004 NOSIG
VGHS 252300Z 00000KT 3500 HZ FEW015 SCT100 25/22 Q1003 NOSIG
VGHS 252230Z 00000KT 3500 HZ SCT012 BKN100 25/22 Q1003 NOSIG
VGHS 252200Z 16004KT 3500 HZ SCT012 BKN100 25/22 Q1003 NOSIG
VGHS 252130Z 17004KT 3500 HZ SCT012 BKN100 25/22 Q1003 NOSIG
VGHS 252100Z 18003KT 3500 HZ SCT012 BKN100 25/21 Q1003 NOSIG
VGHS 252030Z 00000KT 3500 HZ SCT012 BKN100 25/21 Q1003 NOSIG
VGHS 252000Z 09003KT 3500 HZ BKN010 BKN100 25/22 Q1003 TEMPO RA
VGHS 251930Z 13005KT 3500 DZ BKN010 BKN100 25/23 Q1004 TEMPO RA
VGHS 251900Z 12004KT 3500 RA BKN010 FEW025CB OVC090 25/24 Q1004 TEMPO TSRA
VGHS 251830Z 17010KT 3500 RA BKN010 FEW025CB OVC090 25/24 Q1005 TEMPO TSRA
VGHS 251800Z 21012KT 3500 RA BKN010 FEW025CB OVC090 26/23 Q1006 TEMPO TSRA
VGHS 251730Z 23010KT 3500 DZ BKN010 FEW025CB BKN100 27/23 Q1006 TEMPO TSRA
VGHS 251700Z 16004KT 3500 HZ SCT010 FEW025CB BKN100 27/21 Q1005 TEMPO TSRA
VGHS 251630Z 19003KT 3500 HZ SCT010 FEW025CB BKN100 27/21 Q1005 TEMPO TSRA
VGHS 251600Z 16003KT 3500 HZ SCT010 FEW025CB BKN100 27/21 Q1006 TEMPO TSRA
VGHS 251530Z 09003KT 3500 HZ SCT012 BKN100 27/21 Q1005 NOSIG
VGHS 251500Z 11004KT 3500 HZ SCT012 BKN100 28/22 Q1005 NOSIG
VGHS 251430Z 09006KT 3500 HZ SCT012 BKN100 28/22 Q1005 NOSIG
VGHS 251400Z 12004KT 3500 HZ SCT012 BKN100 28/22 Q1004 NOSIG
VGHS 251330Z 11004KT 3500 HZ SCT010 BKN100 28/22 Q1003 NOSIG
VGHS 251300Z 09004KT 3500 HZ SCT010 BKN100 28/22 Q1003 NOSIG
VGHS 251230Z 09004KT 3500 HZ SCT010 BKN100 28/23 Q1003 NOSIG
VGHS 251200Z 09004KT 3000 HZ SCT010 BKN100 29/25 Q1002 NOSIG
VGHS 251130Z 11004KT 3000 HZ SCT010 BKN100 29/25 Q1002 NOSIG
VGHS 251100Z 08004KT 3000 HZ SCT010 BKN100 29/25 Q1002 NOSIG
VGHS 251030Z 08004KT 3000 HZ SCT010 BKN100 29/25 Q1002 NOSIG
VGHS 251000Z 00000KT 3000 HZ SCT010 BKN100 29/25 Q1002 TEMPO RA
VGHS 250930Z 00000KT 3000 HZ SCT010 BKN100 29/25 Q1002 TEMPO RA
VGHS 250900Z 00000KT 2800 TS BKN009 FEW025CB BKN100 28/25 Q1003 TEMPO RA
VGHS 250830Z 00000KT 2800 TSRA BKN009 FEW025CB OVC090 28/25 Q1004 TEMPO TSRA
VGHS 250800Z 00000KT 2800 TSRA BKN009 FEW025CB OVC090 28/25 Q1005 TEMPO TSRA
VGHS 250730Z 29005KT 2800 TSRA BKN009 FEW025CB OVC090 29/26 Q1005 TEMPO TSRA
VGHS 250700Z 23012KT 2500 TSRA BKN009 FEW025CB OVC090 29/26 Q1005 TEMPO TSRA
VGHS 250630Z 29017KT 3500 HZ BKN010 FEW025CB BKN100 31/24 Q1005 TEMPO TSRA
VGHS 250600Z 31018KT 4000 HZ SCT012 FEW025CB BKN100 33/25 Q1005 TEMPO TSRA
VGHS 250530Z 28007KT 4000 HZ SCT012 FEW025CB BKN100 33/25 Q1005 TEMPO TSRA
VGHS 250500Z 23008KT 4000 HZ SCT012 FEW025CB BKN100 32/25 Q1005 NOSIG
VGHS 250430Z 20004KT 4000 HZ SCT015 BKN100 31/24 Q1005 NOSIG
VGHS 250400Z 19006KT 4000 HZ SCT015 BKN100 31/24 Q1006 NOSIG
VGHS 250330Z 17005KT 4000 HZ SCT015 BKN100 30/23 Q1006 NOSIG
VGHS 250300Z 18006KT 3500 HZ SCT015 BKN100 30/23 Q1006 NOSIG
VGHS 250230Z 19008KT 3500 HZ SCT015 BKN100 30/23 Q1006 NOSIG
VGHS 250200Z 19006KT 3500 HZ FEW015 SCT100 29/23 Q1006 NOSIG
VGHS 250130Z 19006KT 3500 HZ FEW015 SCT100 29/23 Q1006 NOSIG
VGHS 250100Z 00000KT 3500 HZ FEW015 SCT100 28/23 Q1005 NOSIG
VGHS 250030Z 00000KT 3500 HZ FEW015 SCT100 28/23 Q1005 NOSIG
VGHS 250000Z 00000KT 3500 HZ FEW015 SCT100 28/23 Q1005 NOSIG
VGHS 242330Z 25005KT 3500 HZ SCT012 BKN100 28/23 Q1004 NOSIG
VGHS 242300Z 24006KT 3500 HZ SCT012 BKN100 28/23 Q1004 NOSIG
VGHS 242230Z 24008KT 3500 HZ BKN010 BKN100 28/24 Q1004 TEMPO TSRA
VGHS 242200Z 27010KT 3500 HZ BKN010 FEW025CB BKN100 28/24 Q1004 TEMPO TSRA
VGHS 242130Z 21005KT 3500 HZ BKN012 FEW025CB BKN100 29/24 Q1004 TEMPO TSRA
VGHS 242100Z 19005KT 3500 HZ BKN012 FEW025CB BKN100 29/24 Q1004 TEMPO TSRA
VGHS 242030Z 17004KT 3500 HZ BKN012 FEW025CB BKN100 29/24 Q1004 TEMPO TSRA